Aviation Digital Data Service (ADDS)

Output produced by METARs form (1254 UTC 22 March 2019)
found at http://www.aviationweather.gov/metar/data/
 
METAR text: VEIM 220900Z 19005KT 4000 HZ SCT018 SCT100 24/15 Q1012 NOSIG
Conditions at: VEIM (IMPHAL/TULIHAL , IN) observed 0900 UTC 22 March 2019
Temperature: 24.0°C (75°F)
Dewpoint: 15.0°C (59°F) [RH = 57%]
Pressure (altimeter): 29.88 inches Hg (1012.0 mb)
Winds: from the S (190 degrees) at 6 MPH (5 knots; 2.6 m/s)
Visibility: 2.49 miles (4.01 km)
Ceiling: at least 12,000 feet AGL
Clouds: scattered clouds at 1800 feet AGL
scattered clouds at 10000 feet AGL
Weather: HZ  (haze)

METAR text: VEIM 220830Z 08003KT 4000 HZ SCT018 SCT100 22/16 Q1013 NOSIG
Conditions at: VEIM (IMPHAL/TULIHAL , IN) observed 0830 UTC 22 March 2019
Temperature: 22.0°C (72°F)
Dewpoint: 16.0°C (61°F) [RH = 69%]
Pressure (altimeter): 29.91 inches Hg (1013.0 mb)
Winds: from the E (80 degrees) at 3 MPH (3 knots; 1.5 m/s)
Visibility: 2.49 miles (4.01 km)
Ceiling: at least 12,000 feet AGL
Clouds: scattered clouds at 1800 feet AGL
scattered clouds at 10000 feet AGL
Weather: HZ  (haze)

METAR text: VEIM 220800Z 00000KT 4000 HZ SCT018 SCT100 21/16 Q1013 NOSIG
Conditions at: VEIM (IMPHAL/TULIHAL , IN) observed 0800 UTC 22 March 2019
Temperature: 21.0°C (70°F)
Dewpoint: 16.0°C (61°F) [RH = 73%]
Pressure (altimeter): 29.91 inches Hg (1013.0 mb)
Winds: calm
Visibility: 2.49 miles (4.01 km)
Ceiling: at least 12,000 feet AGL
Clouds: scattered clouds at 1800 feet AGL
scattered clouds at 10000 feet AGL
Weather: HZ  (haze)

METAR text: VEIM 220730Z 10004KT 3000 HZ SCT018 BKN100 BKN100 21/16 Q1014 NOSIG
Conditions at: VEIM (IMPHAL/TULIHAL , IN) observed 0730 UTC 22 March 2019
Temperature: 21.0°C (70°F)
Dewpoint: 16.0°C (61°F) [RH = 73%]
Pressure (altimeter): 29.94 inches Hg (1014.0 mb)
Winds: from the E (100 degrees) at 5 MPH (4 knots; 2.1 m/s)
Visibility: 1.86 miles (2.99 km)
Ceiling: 10000 feet AGL
Clouds: scattered clouds at 1800 feet AGL
broken clouds at 10000 feet AGL
broken clouds at 10000 feet AGL
Weather: HZ  (haze)

METAR text: VEIM 220700Z 32008KT 3000 TSRA SCT016 FEW025CB BKN100 21/16 Q1015 TEMPO 1500 TSRA
Conditions at: VEIM (IMPHAL/TULIHAL , IN) observed 0700 UTC 22 March 2019
Temperature: 21.0°C (70°F)
Dewpoint: 16.0°C (61°F) [RH = 73%]
Pressure (altimeter): 29.97 inches Hg (1015.0 mb)
Winds: from the NW (320 degrees) at 9 MPH (8 knots; 4.1 m/s)
Visibility: 1.86 miles (2.99 km)
Ceiling: 10000 feet AGL
Clouds: scattered clouds at 1600 feet AGL
few clouds at 2500 feet AGL
broken clouds at 10000 feet AGL
Weather: TSRA  (rain associated with thunderstorm(s))

METAR text: VEIM 220600Z 14008KT 4000 HZ FEW010 SCT018 FEW030CB BKN100 24/15 Q1015 BECMG 5000 HZ
Conditions at: VEIM (IMPHAL/TULIHAL , IN) observed 0600 UTC 22 March 2019
Temperature: 24.0°C (75°F)
Dewpoint: 15.0°C (59°F) [RH = 57%]
Pressure (altimeter): 29.97 inches Hg (1015.0 mb)
Winds: from the SE (140 degrees) at 9 MPH (8 knots; 4.1 m/s)
Visibility: 2.49 miles (4.01 km)
Ceiling: 10000 feet AGL
Clouds: few clouds at 1000 feet AGL
scattered clouds at 1800 feet AGL
few clouds at 3000 feet AGL
broken clouds at 10000 feet AGL
Weather: HZ  (haze)

METAR text: VEIM 220530Z 16009KT 3000 BR FEW010 SCT018 BKN100 21/16 Q1016 BECMG 4000 HZ
Conditions at: VEIM (IMPHAL/TULIHAL , IN) observed 0530 UTC 22 March 2019
Temperature: 21.0°C (70°F)
Dewpoint: 16.0°C (61°F) [RH = 73%]
Pressure (altimeter): 30.00 inches Hg (1016.0 mb)
Winds: from the SSE (160 degrees) at 10 MPH (9 knots; 4.6 m/s)
Visibility: 1.86 miles (2.99 km)
Ceiling: 10000 feet AGL
Clouds: few clouds at 1000 feet AGL
scattered clouds at 1800 feet AGL
broken clouds at 10000 feet AGL
Weather: BR  (mist)

METAR text: VEIM 220500Z 13006KT 3000 BR FEW010 SCT018 BKN100 21/16 Q1016 NOSIG
Conditions at: VEIM (IMPHAL/TULIHAL , IN) observed 0500 UTC 22 March 2019
Temperature: 21.0°C (70°F)
Dewpoint: 16.0°C (61°F) [RH = 73%]
Pressure (altimeter): 30.00 inches Hg (1016.0 mb)
Winds: from the SE (130 degrees) at 7 MPH (6 knots; 3.1 m/s)
Visibility: 1.86 miles (2.99 km)
Ceiling: 10000 feet AGL
Clouds: few clouds at 1000 feet AGL
scattered clouds at 1800 feet AGL
broken clouds at 10000 feet AGL
Weather: BR  (mist)

METAR text: VEIM 220430Z 16004KT 3000 BR FEW010 SCT018 BKN100 20/16 Q1016 NOSIG
Conditions at: VEIM (IMPHAL/TULIHAL , IN) observed 0430 UTC 22 March 2019
Temperature: 20.0°C (68°F)
Dewpoint: 16.0°C (61°F) [RH = 78%]
Pressure (altimeter): 30.00 inches Hg (1016.0 mb)
Winds: from the SSE (160 degrees) at 5 MPH (4 knots; 2.1 m/s)
Visibility: 1.86 miles (2.99 km)
Ceiling: 10000 feet AGL
Clouds: few clouds at 1000 feet AGL
scattered clouds at 1800 feet AGL
broken clouds at 10000 feet AGL
Weather: BR  (mist)

METAR text: VEIM 220400Z 20006KT 3000 BR FEW010 SCT018 BKN100 20/16 Q1017 NOSIG
Conditions at: VEIM (IMPHAL/TULIHAL , IN) observed 0400 UTC 22 March 2019
Temperature: 20.0°C (68°F)
Dewpoint: 16.0°C (61°F) [RH = 78%]
Pressure (altimeter): 30.03 inches Hg (1017.0 mb)
Winds: from the SSW (200 degrees) at 7 MPH (6 knots; 3.1 m/s)
Visibility: 1.86 miles (2.99 km)
Ceiling: 10000 feet AGL
Clouds: few clouds at 1000 feet AGL
scattered clouds at 1800 feet AGL
broken clouds at 10000 feet AGL
Weather: BR  (mist)

METAR text: VEIM 220330Z 17004KT 2500 BR FEW010 SCT018 BKN100 19/17 Q1017 BECMG 3000 BR
Conditions at: VEIM (IMPHAL/TULIHAL , IN) observed 0330 UTC 22 March 2019
Temperature: 19.0°C (66°F)
Dewpoint: 17.0°C (63°F) [RH = 88%]
Pressure (altimeter): 30.03 inches Hg (1017.0 mb)
Winds: from the S (170 degrees) at 5 MPH (4 knots; 2.1 m/s)
Visibility: 1.55 miles (2.49 km)
Ceiling: 10000 feet AGL
Clouds: few clouds at 1000 feet AGL
scattered clouds at 1800 feet AGL
broken clouds at 10000 feet AGL
Weather: BR  (mist)

METAR text: VEIM 220300Z 00000 KT 2000 HZ FEW010 SCT118 FEW030CB BKN100 19/17 Q1016 NOSIG
Conditions at: VEIM (IMPHAL/TULIHAL , IN) observed 0300 UTC 22 March 2019
Temperature: 19.0°C (66°F)
Dewpoint: 17.0°C (63°F) [RH = 88%]
Pressure (altimeter): 30.00 inches Hg (1016.0 mb)
Winds: calm
Visibility: 1.24 miles (2.00 km)
Ceiling: 10000 feet AGL
Clouds: few clouds at 1000 feet AGL
scattered clouds at 11800 feet AGL
few clouds at 3000 feet AGL
broken clouds at 10000 feet AGL
Weather: HZ  (haze)

METAR text: VEIM 211100Z 22008KT 5000 HZ SCT018 SCT100 24/15 Q1012 NOSIG
Conditions at: VEIM (IMPHAL/TULIHAL , IN) observed 1100 UTC 21 March 2019
Temperature: 24.0°C (75°F)
Dewpoint: 15.0°C (59°F) [RH = 57%]
Pressure (altimeter): 29.88 inches Hg (1012.0 mb)
Winds: from the SW (220 degrees) at 9 MPH (8 knots; 4.1 m/s)
Visibility: 3 miles ( 5 km)
Ceiling: at least 12,000 feet AGL
Clouds: scattered clouds at 1800 feet AGL
scattered clouds at 10000 feet AGL
Weather: HZ  (haze)

METAR text: VEIM 211000Z 21011KT 5000 HZ SCT018 SCT100 25/15 Q1012 NOSIG
Conditions at: VEIM (IMPHAL/TULIHAL , IN) observed 1000 UTC 21 March 2019
Temperature: 25.0°C (77°F)
Dewpoint: 15.0°C (59°F) [RH = 54%]
Pressure (altimeter): 29.88 inches Hg (1012.0 mb)
Winds: from the SSW (210 degrees) at 13 MPH (11 knots; 5.7 m/s)
Visibility: 3 miles ( 5 km)
Ceiling: at least 12,000 feet AGL
Clouds: scattered clouds at 1800 feet AGL
scattered clouds at 10000 feet AGL
Weather: HZ  (haze)

METAR text: VEIM 210800Z 22014Z 4500 HZ SCT018 SCT100 27/13 Q1013 NOSIG
Conditions at: VEIM (IMPHAL/TULIHAL , IN) observed 0800 UTC 21 March 2019
Temperature: 27.0°C (81°F)
Dewpoint: 13.0°C (55°F) [RH = 42%]
Pressure (altimeter): 29.91 inches Hg (1013.0 mb)
Winds: missing
Visibility: 2.80 miles (4.51 km)
Ceiling: at least 12,000 feet AGL
Clouds: scattered clouds at 1800 feet AGL
scattered clouds at 10000 feet AGL
Weather: HZ  (haze)

METAR text: VEIM 210700Z 24009Z 4500 HZ SCT018 SCT100 27/17 Q1014 BECMG 5000 HZ
Conditions at: VEIM (IMPHAL/TULIHAL , IN) observed 0700 UTC 21 March 2019
Temperature: 27.0°C (81°F)
Dewpoint: 17.0°C (63°F) [RH = 54%]
Pressure (altimeter): 29.94 inches Hg (1014.0 mb)
Winds: missing
Visibility: 2.80 miles (4.51 km)
Ceiling: at least 12,000 feet AGL
Clouds: scattered clouds at 1800 feet AGL
scattered clouds at 10000 feet AGL
Weather: HZ  (haze)

METAR text: VEIM 210600Z 27006KT 4000 HZ FEW018 SCT100 26/17 Q1015 NOSIG
Conditions at: VEIM (IMPHAL/TULIHAL , IN) observed 0600 UTC 21 March 2019
Temperature: 26.0°C (79°F)
Dewpoint: 17.0°C (63°F) [RH = 58%]
Pressure (altimeter): 29.97 inches Hg (1015.0 mb)
Winds: from the W (270 degrees) at 7 MPH (6 knots; 3.1 m/s)
Visibility: 2.49 miles (4.01 km)
Ceiling: at least 12,000 feet AGL
Clouds: few clouds at 1800 feet AGL
scattered clouds at 10000 feet AGL
Weather: HZ  (haze)

METAR text: VEIM 210500Z 22006KT 4000 HZ FEW018 BKN100 24/15 Q1016 NOSIG
Conditions at: VEIM (IMPHAL/TULIHAL , IN) observed 0500 UTC 21 March 2019
Temperature: 24.0°C (75°F)
Dewpoint: 15.0°C (59°F) [RH = 57%]
Pressure (altimeter): 30.00 inches Hg (1016.0 mb)
Winds: from the SW (220 degrees) at 7 MPH (6 knots; 3.1 m/s)
Visibility: 2.49 miles (4.01 km)
Ceiling: 10000 feet AGL
Clouds: few clouds at 1800 feet AGL
broken clouds at 10000 feet AGL
Weather: HZ  (haze)

METAR text: VEIM 210300Z 00000 KT 3000 HZ FEW018 SCT100 20/15 Q1017 NOSIG
Conditions at: VEIM (IMPHAL/TULIHAL , IN) observed 0300 UTC 21 March 2019
Temperature: 20.0°C (68°F)
Dewpoint: 15.0°C (59°F) [RH = 73%]
Pressure (altimeter): 30.03 inches Hg (1017.0 mb)
Winds: calm
Visibility: 1.86 miles (2.99 km)
Ceiling: at least 12,000 feet AGL
Clouds: few clouds at 1800 feet AGL
scattered clouds at 10000 feet AGL
Weather: HZ  (haze)

Forecast for: VEIM (IMPHAL/TULIHAL , IN)
Text: TAF VEIM 221100Z 2212/2221 18005KT 4000 HZ SCT018 SCT100
Forecast period: 1200 to 1500 UTC 22 March 2019
Forecast type: FROM: standard forecast or significant change
Winds: from the S (180 degrees) at 6 MPH (5 knots; 2.6 m/s)
Visibility: 2.49 miles (4.01 km)
Ceiling: at least 12,000 feet AGL
Clouds: scattered clouds at 1800 feet AGL
scattered clouds at 10000 feet AGL
Weather: HZ  (haze)
Text: TEMPO 2213/2214 25007KT 3000 -TSRA BR SCT018 FEW025CB BKN100
Forecast period: 1300 to 1400 UTC 22 March 2019
Forecast type: TEMPORARY: The following changes expected for less than half the time period
Winds: from the WSW (250 degrees) at 8 MPH (7 knots; 3.6 m/s)
Visibility: 1.86 miles (2.99 km)
Ceiling: 10000 feet AGL
Clouds: scattered clouds at 1800 feet AGL
few clouds at 2500 feet AGL
broken clouds at 10000 feet AGL
Weather: -TSRA BR  (light rain associated with thunderstorm(s), mist)
Text: BECMG 2215/2217 00000KT 2500 BR SCT018 BKN100
Forecast period: 1500 to 2100 UTC 22 March 2019
Forecast type: BECOMING: Conditions expected to become as follows by 1700 UTC 22 March 2019
Winds: calm
Visibility: 1.55 miles (2.49 km)
Ceiling: 10000 feet AGL
Clouds: scattered clouds at 1800 feet AGL
broken clouds at 10000 feet AGL
Weather: BR  (mist)